createdAt,value
2023-01-29T00:01:07.524Z,1.67
2023-01-29T00:04:09.108Z,1.72
2023-01-29T00:07:10.678Z,1.73
2023-01-29T00:10:12.164Z,1.66
2023-01-29T00:13:13.981Z,1.68
2023-01-29T00:16:15.495Z,1.63
2023-01-29T00:19:17.580Z,1.64
2023-01-29T00:22:19.094Z,1.59
2023-01-29T00:25:20.698Z,1.57
2023-01-29T00:28:22.231Z,1.57
2023-01-29T00:31:25.353Z,1.50
2023-01-29T00:34:26.965Z,1.55
2023-01-29T00:37:28.447Z,1.59
2023-01-29T00:40:50.084Z,1.50
2023-01-29T00:44:10.283Z,1.47
2023-01-29T00:47:30.594Z,1.47
2023-01-29T00:50:32.228Z,1.45
2023-01-29T00:53:33.766Z,1.50
2023-01-29T00:56:36.665Z,1.59
2023-01-29T00:59:38.189Z,1.67
2023-01-29T01:02:58.376Z,1.68
2023-01-29T01:06:09.786Z,1.75
2023-01-29T01:09:30.038Z,1.81
2023-01-29T01:12:31.945Z,1.71
2023-01-29T01:15:39.138Z,1.70
2023-01-29T01:18:41.778Z,1.68
2023-01-29T01:21:45.445Z,1.64
2023-01-29T01:24:46.983Z,1.67
2023-01-29T01:27:48.735Z,1.60
2023-01-29T01:30:50.380Z,1.53
2023-01-29T01:33:54.277Z,1.41
2023-01-29T01:36:56.307Z,1.36
2023-01-29T01:39:58.611Z,1.37
2023-01-29T01:43:01.017Z,1.37
2023-01-29T01:46:02.980Z,1.32
2023-01-29T01:49:11.042Z,1.35
2023-01-29T01:52:14.583Z,1.35
2023-01-29T01:55:19.534Z,1.35
2023-01-29T01:58:30.630Z,1.33
2023-01-29T02:01:32.936Z,1.28
2023-01-29T02:04:53.132Z,1.26
2023-01-29T02:08:13.436Z,1.28
2023-01-29T02:11:15.115Z,1.20
2023-01-29T02:14:16.753Z,1.06
2023-01-29T02:17:19.984Z,1.00
2023-01-29T02:20:26.434Z,0.93
2023-01-29T02:23:44.361Z,0.87
2023-01-29T02:27:08.727Z,0.86
2023-01-29T02:30:23.076Z,0.81
2023-01-29T02:33:48.134Z,0.86
2023-01-29T02:37:04.779Z,0.81
2023-01-29T02:40:13.844Z,0.79
2023-01-29T02:43:22.518Z,0.75
2023-01-29T02:46:35.536Z,0.72
2023-01-29T02:50:02.281Z,0.70
2023-01-29T02:53:15.001Z,0.71
2023-01-29T02:56:22.463Z,0.79
2023-01-29T02:59:31.683Z,0.86
2023-01-29T03:02:58.384Z,0.87
2023-01-29T03:06:06.585Z,0.94
2023-01-29T03:09:14.875Z,0.90
2023-01-29T03:12:35.125Z,0.93
2023-01-29T03:15:47.397Z,0.98
2023-01-29T03:19:23.240Z,1.05
2023-01-29T03:22:26.626Z,1.05
2023-01-29T03:25:50.438Z,0.96
2023-01-29T03:29:11.375Z,0.97
2023-01-29T03:32:14.612Z,0.91
2023-01-29T03:35:33.485Z,0.99
2023-01-29T03:38:35.189Z,1.02
2023-01-29T03:41:47.562Z,1.08
2023-01-29T03:45:14.141Z,1.12
2023-01-29T03:48:35.559Z,1.10
2023-01-29T03:52:01.500Z,1.06
2023-01-29T03:55:14.406Z,1.03
2023-01-29T03:58:29.616Z,1.01
2023-01-29T04:01:42.899Z,0.98
2023-01-29T04:04:51.995Z,0.84
2023-01-29T04:08:02.666Z,0.74
2023-01-29T04:11:11.854Z,0.71
2023-01-29T04:14:14.473Z,0.65
2023-01-29T04:17:20.572Z,0.59
2023-01-29T04:20:37.363Z,0.61
2023-01-29T04:23:39.087Z,0.62
2023-01-29T04:26:58.490Z,0.61
2023-01-29T04:30:24.759Z,0.55
2023-01-29T04:33:32.573Z,0.56
2023-01-29T04:36:58.830Z,0.62
2023-01-29T04:40:16.348Z,0.74
2023-01-29T04:43:26.312Z,0.70
2023-01-29T04:46:46.027Z,0.66
2023-01-29T04:49:59.150Z,0.72
2023-01-29T04:53:09.155Z,0.65
2023-01-29T04:56:40.397Z,0.58
2023-01-29T04:59:55.225Z,0.56
2023-01-29T05:02:57.479Z,0.57
2023-01-29T05:06:01.325Z,0.55
2023-01-29T05:09:03.785Z,0.63
2023-01-29T05:12:10.668Z,0.61
2023-01-29T05:15:23.248Z,0.53
2023-01-29T05:18:24.894Z,0.38
2023-01-29T05:21:27.339Z,0.18
2023-01-29T05:24:29.064Z,0.02
2023-01-29T05:27:53.782Z,0.03
2023-01-29T05:30:56.594Z,-0.27
2023-01-29T05:33:58.308Z,-0.40
2023-01-29T05:36:59.812Z,-0.46
2023-01-29T05:40:01.464Z,-0.40
2023-01-29T05:43:03.214Z,-0.33
2023-01-29T05:46:04.926Z,-0.22
2023-01-29T05:49:06.630Z,-0.18
2023-01-29T05:52:08.262Z,-0.20
2023-01-29T05:55:10.401Z,-0.41
2023-01-29T05:58:12.172Z,-0.36
2023-01-29T06:01:22.639Z,-0.31
2023-01-29T06:04:24.431Z,-0.28
2023-01-29T06:07:26.103Z,-0.38
2023-01-29T06:10:27.652Z,-0.47
2023-01-29T06:13:29.127Z,-0.51
2023-01-29T06:16:30.722Z,-0.47
2023-01-29T06:19:32.212Z,-0.38
2023-01-29T06:22:34.288Z,-0.40
2023-01-29T06:25:35.917Z,-0.43
2023-01-29T06:28:37.586Z,-0.52
2023-01-29T06:31:39.863Z,-0.69
2023-01-29T06:34:41.695Z,-0.79
2023-01-29T06:37:43.339Z,-0.94
2023-01-29T06:40:44.845Z,-1.09
2023-01-29T06:43:47.071Z,-1.25
2023-01-29T06:46:48.549Z,-1.37
2023-01-29T06:49:50.684Z,-1.53
2023-01-29T06:52:52.156Z,-1.62
2023-01-29T06:55:54.023Z,-1.56
2023-01-29T06:58:55.585Z,-1.49
2023-01-29T07:01:57.107Z,-1.38
2023-01-29T07:04:58.658Z,-1.43
2023-01-29T07:08:00.192Z,-1.42
2023-01-29T07:11:03.160Z,-1.42
2023-01-29T07:14:04.888Z,-1.40
2023-01-29T07:17:06.370Z,-1.39
2023-01-29T07:20:09.215Z,-1.27
2023-01-29T07:23:13.027Z,-1.28
2023-01-29T07:26:14.577Z,-1.29
2023-01-29T07:29:16.040Z,-1.25
2023-01-29T07:32:17.545Z,-1.28
2023-01-29T07:35:19.185Z,-1.25
2023-01-29T07:38:20.885Z,-1.19
2023-01-29T07:41:22.449Z,-1.15
2023-01-29T07:44:24.103Z,-1.11
2023-01-29T07:47:25.819Z,-1.04
2023-01-29T07:50:27.412Z,-0.96
2023-01-29T07:53:29.585Z,-0.86
2023-01-29T07:56:31.252Z,-0.69
2023-01-29T07:59:32.823Z,-0.41
2023-01-29T08:02:34.589Z,-0.23
2023-01-29T08:05:36.305Z,-0.14
2023-01-29T08:08:37.805Z,-0.21
2023-01-29T08:11:40.259Z,-0.06
2023-01-29T08:14:41.831Z,0.13
2023-01-29T08:17:57.247Z,0.23
2023-01-29T08:21:02.482Z,0.36
2023-01-29T08:24:04.270Z,0.44
2023-01-29T08:27:05.805Z,0.61
2023-01-29T08:30:09.150Z,0.66
2023-01-29T08:33:11.107Z,0.72
2023-01-29T08:36:12.731Z,0.74
2023-01-29T08:39:14.247Z,0.73
2023-01-29T08:42:15.866Z,0.93
2023-01-29T08:45:18.209Z,0.91
2023-01-29T08:48:20.088Z,0.79
2023-01-29T08:51:21.990Z,0.74
2023-01-29T08:54:24.211Z,0.71
2023-01-29T08:57:25.770Z,0.77
2023-01-29T09:00:27.349Z,0.87
2023-01-29T09:03:28.839Z,0.91
2023-01-29T09:06:30.375Z,0.89
2023-01-29T09:09:31.815Z,0.87
2023-01-29T09:12:33.413Z,0.77
2023-01-29T09:15:34.957Z,0.73
2023-01-29T09:18:36.804Z,0.75
2023-01-29T09:21:38.253Z,0.96
2023-01-29T09:24:39.766Z,1.10
2023-01-29T09:27:41.445Z,0.99
2023-01-29T09:30:43.837Z,0.98
2023-01-29T09:33:45.403Z,1.30
2023-01-29T09:36:46.980Z,1.60
2023-01-29T09:39:49.625Z,1.75
2023-01-29T09:42:56.527Z,1.90
2023-01-29T09:46:06.372Z,1.97
2023-01-29T09:49:23.685Z,1.91
2023-01-29T09:52:30.256Z,1.96
2023-01-29T09:55:39.342Z,2.03
2023-01-29T09:58:43.328Z,2.01
2023-01-29T10:02:10.430Z,1.86
2023-01-29T10:05:24.509Z,1.97
2023-01-29T10:08:52.614Z,2.08
2023-01-29T10:12:09.429Z,2.18
2023-01-29T10:15:34.944Z,2.34
2023-01-29T10:18:48.784Z,2.53
2023-01-29T10:22:02.432Z,2.59
2023-01-29T10:25:25.924Z,2.52
2023-01-29T10:28:38.138Z,2.64
2023-01-29T10:31:40.483Z,2.79
2023-01-29T10:35:12.587Z,2.95
2023-01-29T10:38:28.264Z,3.03
2023-01-29T10:41:42.510Z,3.04
2023-01-29T10:44:53.541Z,2.98
2023-01-29T10:48:34.085Z,3.19
2023-01-29T10:51:59.672Z,3.30
2023-01-29T10:55:23.004Z,3.53
2023-01-29T10:58:34.523Z,3.96
2023-01-29T11:01:36.178Z,4.11
2023-01-29T11:04:39.179Z,4.09
2023-01-29T11:07:40.667Z,3.87
2023-01-29T11:10:50.774Z,3.64
2023-01-29T11:14:06.900Z,3.71
2023-01-29T11:17:16.776Z,3.67
2023-01-29T11:20:28.836Z,3.85
2023-01-29T11:23:32.468Z,3.94
2023-01-29T11:26:40.789Z,3.87
2023-01-29T11:29:48.162Z,3.92
2023-01-29T11:33:18.439Z,4.14
2023-01-29T11:36:35.443Z,4.24
2023-01-29T11:39:44.802Z,4.43
2023-01-29T11:42:47.327Z,4.63
2023-01-29T11:45:52.421Z,4.48
2023-01-29T11:48:59.194Z,4.41
2023-01-29T11:52:07.385Z,4.20
2023-01-29T11:55:17.912Z,4.14
2023-01-29T11:58:35.280Z,4.19
2023-01-29T12:01:39.700Z,4.18
2023-01-29T12:04:41.503Z,4.07
2023-01-29T12:07:45.754Z,3.80
2023-01-29T12:10:47.634Z,3.85
2023-01-29T12:13:54.942Z,3.80
2023-01-29T12:16:59.484Z,3.68
2023-01-29T12:20:06.750Z,3.55
2023-01-29T12:23:30.883Z,3.61
2023-01-29T12:26:46.562Z,3.71
2023-01-29T12:30:06.557Z,3.60
2023-01-29T12:33:31.714Z,3.50
2023-01-29T12:36:55.174Z,3.58
2023-01-29T12:39:56.743Z,3.58
2023-01-29T12:43:04.653Z,3.59
2023-01-29T12:46:11.997Z,3.71
2023-01-29T12:49:18.662Z,3.81
2023-01-29T12:52:36.930Z,3.80
2023-01-29T12:55:44.662Z,3.88
2023-01-29T12:58:50.997Z,3.67
2023-01-29T13:01:56.795Z,3.57
2023-01-29T13:05:05.888Z,3.74
2023-01-29T13:08:11.942Z,3.93
2023-01-29T13:11:19.344Z,3.64
2023-01-29T13:14:58.914Z,3.51
2023-01-29T13:18:32.903Z,3.52
2023-01-29T13:21:39.129Z,3.66
2023-01-29T13:24:42.355Z,3.60
2023-01-29T13:27:47.771Z,3.43
2023-01-29T13:31:10.961Z,3.75
2023-01-29T13:34:20.086Z,3.62
2023-01-29T13:37:30.316Z,3.56
2023-01-29T13:40:34.601Z,3.81
2023-01-29T13:43:39.119Z,3.87
2023-01-29T13:46:41.969Z,3.61
2023-01-29T13:49:52.502Z,3.60
2023-01-29T13:53:02.304Z,3.77
2023-01-29T14:00:31.014Z,3.76
2023-01-29T14:04:02.201Z,3.83
2023-01-29T14:07:49.238Z,3.79
2023-01-29T14:11:14.187Z,3.64
2023-01-29T14:15:09.966Z,3.51
2023-01-29T14:18:11.441Z,3.52
2023-01-29T14:21:29.791Z,3.69
2023-01-29T14:24:31.627Z,3.76
2023-01-29T14:27:35.637Z,3.78
2023-01-29T14:30:38.032Z,3.72
2023-01-29T14:33:43.404Z,3.74
2023-01-29T14:36:47.449Z,3.90
2023-01-29T14:39:50.256Z,3.66
2023-01-29T14:43:19.792Z,3.30
2023-01-29T14:46:33.693Z,2.97
2023-01-29T14:50:19.680Z,2.66
2023-01-29T14:53:27.997Z,2.66
2023-01-29T14:56:35.263Z,2.54
2023-01-29T14:59:57.752Z,2.52
2023-01-29T15:03:02.577Z,2.23
2023-01-29T15:06:06.328Z,2.28
2023-01-29T15:09:10.971Z,2.33
2023-01-29T15:12:34.054Z,2.25
2023-01-29T15:16:09.284Z,2.06
2023-01-29T15:19:44.480Z,2.08
2023-01-29T15:22:45.947Z,2.00
2023-01-29T15:25:51.096Z,1.83
2023-01-29T15:29:03.438Z,1.72
2023-01-29T15:32:06.537Z,1.73
2023-01-29T15:35:43.385Z,1.75
2023-01-29T15:38:44.929Z,1.80
2023-01-29T15:41:46.483Z,1.88
2023-01-29T15:44:48.147Z,1.90
2023-01-29T15:47:50.663Z,1.87
2023-01-29T15:50:54.796Z,1.81
2023-01-29T15:53:56.136Z,1.69
2023-01-29T15:56:58.265Z,1.65
2023-01-29T15:59:59.881Z,1.53
2023-01-29T16:03:14.862Z,1.49
2023-01-29T16:06:16.992Z,1.51
2023-01-29T16:09:23.521Z,1.60
2023-01-29T16:12:25.538Z,1.75
2023-01-29T16:15:35.996Z,1.69
2023-01-29T16:18:41.102Z,1.56
2023-01-29T16:21:53.525Z,1.61
2023-01-29T16:24:55.502Z,1.57
2023-01-29T16:28:14.915Z,1.48
2023-01-29T16:31:28.822Z,1.61
2023-01-29T16:34:44.125Z,1.78
2023-01-29T16:37:50.848Z,1.90
2023-01-29T16:41:21.806Z,1.92
2023-01-29T16:44:38.089Z,1.93
2023-01-29T16:47:43.315Z,1.92
2023-01-29T16:50:54.615Z,1.84
2023-01-29T16:54:27.535Z,1.76
2023-01-29T16:57:33.221Z,1.70
2023-01-29T17:00:34.790Z,1.62
2023-01-29T17:03:38.192Z,1.48
2023-01-29T17:06:44.201Z,1.39
2023-01-29T17:09:51.694Z,1.33
2023-01-29T17:13:01.928Z,1.28
2023-01-29T17:16:26.953Z,1.10
2023-01-29T17:19:30.157Z,0.90
2023-01-29T17:22:31.933Z,0.70
2023-01-29T17:25:33.543Z,0.60
2023-01-29T17:28:35.168Z,0.44
2023-01-29T17:31:37.464Z,0.44
2023-01-29T17:34:39.149Z,0.40
2023-01-29T17:37:40.910Z,0.30
2023-01-29T17:40:47.019Z,0.22
2023-01-29T17:43:48.599Z,0.13
2023-01-29T17:46:50.174Z,0.08
2023-01-29T17:49:51.704Z,0.03
2023-01-29T17:52:56.127Z,-0.12
2023-01-29T17:55:57.748Z,-0.19
2023-01-29T17:58:59.630Z,-0.23
2023-01-29T18:02:01.340Z,-0.32
2023-01-29T18:05:02.915Z,-0.40
2023-01-29T18:08:04.814Z,-0.45
2023-01-29T18:11:07.442Z,-0.56
2023-01-29T18:14:14.364Z,-0.63
2023-01-29T18:17:22.093Z,-0.77
2023-01-29T18:20:25.576Z,-0.75
2023-01-29T18:23:29.448Z,-0.87
2023-01-29T18:26:31.073Z,-0.83
2023-01-29T18:29:32.613Z,-0.85
2023-01-29T18:32:34.179Z,-0.97
2023-01-29T18:35:35.612Z,-0.99
2023-01-29T18:38:37.152Z,-1.06
2023-01-29T18:41:38.715Z,-1.06
2023-01-29T18:44:40.272Z,-1.06
2023-01-29T18:47:41.806Z,-1.09
2023-01-29T18:50:43.349Z,-1.11
2023-01-29T18:53:49.861Z,-1.17
2023-01-29T18:57:13.249Z,-1.20
2023-01-29T19:00:13.798Z,-1.24
2023-01-29T19:03:15.429Z,-1.26
2023-01-29T19:06:17.054Z,-1.40
2023-01-29T19:09:18.966Z,-1.51
2023-01-29T19:12:21.972Z,-1.50
2023-01-29T19:15:23.513Z,-1.54
2023-01-29T19:18:27.811Z,-1.60
2023-01-29T19:21:30.350Z,-1.57
2023-01-29T19:24:36.355Z,-1.60
2023-01-29T19:27:38.038Z,-1.61
2023-01-29T19:30:39.793Z,-1.67
2023-01-29T19:33:41.484Z,-1.76
2023-01-29T19:36:46.086Z,-1.67
2023-01-29T19:39:47.651Z,-1.69
2023-01-29T19:42:49.197Z,-1.71
2023-01-29T19:45:57.753Z,-1.89
2023-01-29T19:48:59.274Z,-1.90
2023-01-29T19:52:01.551Z,-1.93
2023-01-29T19:55:06.169Z,-2.02
2023-01-29T19:58:07.715Z,-2.04
2023-01-29T20:01:17.001Z,-2.06
2023-01-29T20:04:18.472Z,-2.09
2023-01-29T20:07:20.120Z,-2.20
2023-01-29T20:10:21.688Z,-2.22
2023-01-29T20:13:23.496Z,-2.22
2023-01-29T20:16:26.745Z,-2.20
2023-01-29T20:19:28.296Z,-2.20
2023-01-29T20:22:29.820Z,-2.25
2023-01-29T20:25:31.379Z,-2.25
2023-01-29T20:28:33.133Z,-2.29
2023-01-29T20:31:34.696Z,-2.40
2023-01-29T20:34:36.459Z,-2.33
2023-01-29T20:37:37.978Z,-2.38
2023-01-29T20:40:39.407Z,-2.45
2023-01-29T20:43:41.852Z,-2.54
2023-01-29T20:46:43.404Z,-2.45
2023-01-29T20:49:44.978Z,-2.49
2023-01-29T20:52:46.944Z,-2.56
2023-01-29T20:55:48.552Z,-2.52
2023-01-29T20:58:50.373Z,-2.51
2023-01-29T21:01:51.887Z,-2.58
2023-01-29T21:04:53.363Z,-2.58
2023-01-29T21:07:55.436Z,-2.67
2023-01-29T21:10:57.011Z,-2.63
2023-01-29T21:13:58.561Z,-2.70
2023-01-29T21:17:00.929Z,-2.69
2023-01-29T21:20:04.136Z,-2.68
2023-01-29T21:23:07.191Z,-2.75
2023-01-29T21:26:09.088Z,-2.75
2023-01-29T21:29:13.977Z,-2.76
2023-01-29T21:32:16.369Z,-2.78
2023-01-29T21:35:17.991Z,-2.82
2023-01-29T21:38:19.425Z,-2.82
2023-01-29T21:41:40.936Z,-2.88
2023-01-29T21:44:42.496Z,-2.85
2023-01-29T21:47:44.063Z,-2.78
2023-01-29T21:50:45.667Z,-2.84
2023-01-29T21:53:47.220Z,-2.87
2023-01-29T21:56:48.860Z,-2.85
2023-01-29T21:59:53.265Z,-2.96
2023-01-29T22:02:55.162Z,-3.05
2023-01-29T22:05:56.750Z,-3.19
2023-01-29T22:08:58.363Z,-3.10
2023-01-29T22:12:00.116Z,-3.13
2023-01-29T22:15:01.675Z,-3.17
2023-01-29T22:18:03.287Z,-3.17
2023-01-29T22:21:05.029Z,-3.24
2023-01-29T22:24:07.472Z,-3.32
2023-01-29T22:27:08.961Z,-3.33
2023-01-29T22:30:11.314Z,-3.33
2023-01-29T22:33:12.889Z,-3.29
2023-01-29T22:36:14.823Z,-3.27
2023-01-29T22:39:16.318Z,-3.29
2023-01-29T22:42:20.017Z,-3.34
2023-01-29T22:45:22.303Z,-3.35
2023-01-29T22:48:24.244Z,-3.35
2023-01-29T22:51:25.836Z,-3.33
2023-01-29T22:54:27.326Z,-3.34
2023-01-29T22:57:28.911Z,-3.45
2023-01-29T23:00:30.388Z,-3.40
2023-01-29T23:03:32.076Z,-3.41
2023-01-29T23:06:33.836Z,-3.49
2023-01-29T23:09:35.390Z,-3.53
2023-01-29T23:12:37.471Z,-3.58
2023-01-29T23:15:39.055Z,-3.61
2023-01-29T23:18:41.201Z,-3.60
2023-01-29T23:21:42.785Z,-3.58
2023-01-29T23:24:44.255Z,-3.60
2023-01-29T23:27:45.846Z,-3.65
2023-01-29T23:30:47.893Z,-3.59
2023-01-29T23:33:50.513Z,-3.59
2023-01-29T23:36:52.121Z,-3.60
2023-01-29T23:39:53.649Z,-3.76
2023-01-29T23:42:55.161Z,-3.62
2023-01-29T23:45:56.959Z,-3.67
2023-01-29T23:48:58.671Z,-3.74
2023-01-29T23:52:00.190Z,-3.83
2023-01-29T23:55:01.703Z,-3.87
2023-01-29T23:58:03.641Z,-3.96
